createdAt,value
2024-05-09T00:01:56.064Z,14.16
2024-05-09T00:04:31.606Z,14.16
2024-05-09T00:07:07.120Z,14.15
2024-05-09T00:09:45.214Z,14.17
2024-05-09T00:12:20.776Z,14.26
2024-05-09T00:14:56.352Z,14.26
2024-05-09T00:17:32.028Z,14.25
2024-05-09T00:20:14.415Z,14.28
2024-05-09T00:22:55.749Z,14.30
2024-05-09T00:25:33.790Z,14.33
2024-05-09T00:28:09.508Z,14.38
2024-05-09T00:30:44.873Z,14.34
2024-05-09T00:33:20.861Z,14.36
2024-05-09T00:35:56.824Z,14.40
2024-05-09T00:38:32.298Z,14.46
2024-05-09T00:41:10.516Z,14.49
2024-05-09T00:43:45.942Z,14.55
2024-05-09T00:46:21.572Z,14.57
2024-05-09T00:48:57.248Z,14.63
2024-05-09T00:51:32.813Z,14.69
2024-05-09T00:54:08.586Z,14.57
2024-05-09T00:56:47.045Z,14.53
2024-05-09T00:59:22.881Z,14.49
2024-05-09T01:01:58.414Z,14.52
2024-05-09T01:04:33.900Z,14.59
2024-05-09T01:07:09.577Z,14.54
2024-05-09T01:09:44.933Z,14.61
2024-05-09T01:12:24.745Z,14.58
2024-05-09T01:15:00.218Z,14.56
2024-05-09T01:17:36.035Z,14.55
2024-05-09T01:20:19.861Z,14.61
2024-05-09T01:23:00.339Z,14.55
2024-05-09T01:25:38.821Z,14.40
2024-05-09T01:28:15.123Z,14.40
2024-05-09T01:30:50.532Z,14.37
2024-05-09T01:33:26.181Z,14.43
2024-05-09T01:36:01.853Z,14.43
2024-05-09T01:38:37.425Z,14.49
2024-05-09T01:41:15.572Z,14.50
2024-05-09T01:43:51.105Z,14.54
2024-05-09T01:46:26.548Z,14.53
2024-05-09T01:49:01.994Z,14.53
2024-05-09T01:51:37.380Z,14.55
2024-05-09T01:54:12.742Z,14.46
2024-05-09T01:56:50.761Z,14.44
2024-05-09T01:59:26.213Z,14.46
2024-05-09T02:02:02.183Z,14.44
2024-05-09T02:04:37.855Z,14.38
2024-05-09T02:07:13.246Z,14.42
2024-05-09T02:09:48.600Z,14.47
2024-05-09T02:12:26.691Z,14.40
2024-05-09T02:15:02.116Z,14.44
2024-05-09T02:17:37.806Z,14.38
2024-05-09T02:20:22.477Z,14.47
2024-05-09T02:23:04.265Z,14.38
2024-05-09T02:25:40.482Z,14.37
2024-05-09T02:28:18.495Z,14.25
2024-05-09T02:30:53.866Z,14.22
2024-05-09T02:33:29.339Z,14.00
2024-05-09T02:36:05.866Z,14.02
2024-05-09T02:38:39.134Z,13.96
2024-05-09T02:41:14.599Z,13.99
2024-05-09T02:43:50.002Z,13.91
2024-05-09T02:46:25.406Z,13.83
2024-05-09T02:48:58.274Z,13.90
2024-05-09T02:51:33.691Z,13.92
2024-05-09T02:54:07.789Z,13.77
2024-05-09T02:56:43.124Z,13.68
2024-05-09T02:59:18.710Z,13.55
2024-05-09T03:01:54.251Z,13.46
2024-05-09T03:04:27.125Z,13.47
2024-05-09T03:07:02.480Z,13.45
2024-05-09T03:09:35.233Z,13.38
2024-05-09T03:12:10.927Z,13.39
2024-05-09T03:14:49.722Z,13.39
2024-05-09T03:17:26.092Z,13.45
2024-05-09T03:19:59.171Z,13.40
2024-05-09T03:22:34.555Z,13.39
2024-05-09T03:25:07.711Z,13.45
2024-05-09T03:27:43.074Z,13.34
2024-05-09T03:30:29.312Z,13.34
2024-05-09T03:33:14.047Z,13.40
2024-05-09T03:35:48.861Z,13.33
2024-05-09T03:38:24.815Z,13.36
2024-05-09T03:41:00.493Z,13.31
2024-05-09T03:43:35.926Z,13.28
2024-05-09T03:46:13.895Z,13.18
2024-05-09T03:48:46.692Z,13.22
2024-05-09T03:51:22.771Z,13.27
2024-05-09T03:53:55.541Z,13.28
2024-05-09T03:56:31.052Z,13.20
2024-05-09T03:59:04.013Z,13.22
2024-05-09T04:01:42.339Z,13.27
2024-05-09T04:04:15.280Z,13.29
2024-05-09T04:06:51.324Z,13.26
2024-05-09T04:09:24.102Z,13.23
2024-05-09T04:11:59.585Z,13.12
2024-05-09T04:14:32.557Z,13.14
2024-05-09T04:17:10.848Z,13.11
2024-05-09T04:19:43.646Z,13.24
2024-05-09T04:22:19.161Z,13.30
2024-05-09T04:24:52.953Z,13.45
2024-05-09T04:27:28.313Z,13.54
2024-05-09T04:30:01.048Z,13.64
2024-05-09T04:32:39.638Z,13.69
2024-05-09T04:35:12.798Z,13.81
2024-05-09T04:37:48.212Z,13.91
2024-05-09T04:40:28.523Z,13.98
2024-05-09T04:43:09.491Z,14.06
2024-05-09T04:45:42.217Z,14.09
2024-05-09T04:48:20.515Z,14.10
2024-05-09T04:50:53.308Z,14.05
2024-05-09T04:53:28.764Z,14.10
2024-05-09T04:56:02.116Z,14.08
2024-05-09T04:58:37.568Z,14.14
2024-05-09T05:01:10.401Z,14.06
2024-05-09T05:03:48.681Z,14.04
2024-05-09T05:06:21.549Z,14.18
2024-05-09T05:08:56.917Z,14.23
2024-05-09T05:11:29.863Z,14.30
2024-05-09T05:14:05.388Z,14.35
2024-05-09T05:16:41.397Z,14.46
2024-05-09T05:19:17.730Z,14.50
2024-05-09T05:21:53.199Z,14.48
2024-05-09T05:24:26.000Z,14.40
2024-05-09T05:27:01.872Z,14.25
2024-05-09T05:29:34.741Z,14.17
2024-05-09T05:32:10.545Z,14.18
2024-05-09T05:34:46.821Z,14.05
2024-05-09T05:37:22.167Z,14.02
2024-05-09T05:39:54.956Z,14.12
2024-05-09T05:42:30.367Z,14.15
2024-05-09T05:45:04.566Z,14.20
2024-05-09T05:47:41.262Z,14.22
2024-05-09T05:50:24.707Z,14.21
2024-05-09T05:53:09.604Z,14.25
2024-05-09T05:55:43.018Z,14.13
2024-05-09T05:58:20.285Z,14.23
2024-05-09T06:00:53.783Z,14.22
2024-05-09T06:03:29.546Z,14.16
2024-05-09T06:06:05.503Z,14.12
2024-05-09T06:08:41.076Z,14.01
2024-05-09T06:11:14.070Z,13.96
2024-05-09T06:13:49.579Z,14.04
2024-05-09T06:16:22.384Z,14.03
2024-05-09T06:18:57.890Z,13.88
2024-05-09T06:21:33.449Z,13.93
2024-05-09T06:24:10.059Z,13.81
2024-05-09T06:26:43.125Z,13.82
2024-05-09T06:29:18.686Z,13.98
2024-05-09T06:31:51.583Z,14.08
2024-05-09T06:34:27.290Z,14.12
2024-05-09T06:37:02.880Z,14.10
2024-05-09T06:39:38.434Z,14.12
2024-05-09T06:42:11.168Z,14.00
2024-05-09T06:44:46.521Z,14.16
2024-05-09T06:47:19.369Z,14.19
2024-05-09T06:49:54.866Z,14.21
2024-05-09T06:52:30.224Z,14.21
2024-05-09T06:55:05.622Z,14.21
2024-05-09T06:57:40.568Z,14.15
2024-05-09T07:00:26.796Z,14.19
2024-05-09T07:03:07.730Z,14.10
2024-05-09T07:05:43.422Z,14.04
2024-05-09T07:08:19.386Z,14.15
2024-05-09T07:10:55.045Z,14.23
2024-05-09T07:13:28.570Z,14.07
2024-05-09T07:16:03.894Z,14.08
2024-05-09T07:18:37.026Z,14.09
2024-05-09T07:21:12.900Z,14.08
2024-05-09T07:23:48.798Z,13.92
2024-05-09T07:26:24.357Z,14.12
2024-05-09T07:28:57.157Z,14.21
2024-05-09T07:31:32.569Z,14.19
2024-05-09T07:34:05.344Z,14.25
2024-05-09T07:36:40.751Z,13.92
2024-05-09T07:39:18.749Z,13.98
2024-05-09T07:41:51.538Z,13.94
2024-05-09T07:44:26.984Z,13.95
2024-05-09T07:53:29.886Z,13.75
2024-05-09T07:55:14.185Z,13.86
2024-05-09T07:57:47.045Z,14.01
2024-05-09T08:00:29.686Z,14.06
2024-05-09T08:03:04.870Z,14.11
2024-05-09T08:05:40.463Z,14.18
2024-05-09T08:08:13.242Z,14.18
2024-05-09T08:10:51.486Z,14.11
2024-05-09T08:13:24.426Z,14.01
2024-05-09T08:15:59.927Z,14.08
2024-05-09T08:18:34.222Z,14.19
2024-05-09T08:21:09.927Z,14.21
2024-05-09T08:23:42.758Z,14.17
2024-05-09T08:26:21.770Z,14.08
2024-05-09T08:28:54.580Z,14.02
2024-05-09T08:31:30.154Z,14.07
2024-05-09T08:34:03.284Z,14.02
2024-05-09T08:36:40.894Z,14.01
2024-05-09T08:39:13.731Z,13.95
2024-05-09T08:41:54.167Z,13.85
2024-05-09T08:44:27.270Z,14.03
2024-05-09T08:47:02.821Z,14.05
2024-05-09T08:49:39.902Z,14.01
2024-05-09T08:52:16.264Z,13.91
2024-05-09T08:54:49.408Z,13.91
2024-05-09T08:57:29.692Z,13.87
2024-05-09T09:00:09.975Z,13.80
2024-05-09T09:02:49.930Z,13.68
2024-05-09T09:05:28.593Z,13.72
2024-05-09T09:08:09.534Z,13.62
2024-05-09T09:10:43.442Z,13.56
2024-05-09T09:13:21.595Z,13.49
2024-05-09T09:15:58.485Z,13.55
2024-05-09T09:18:34.669Z,13.60
2024-05-09T09:21:10.309Z,13.64
2024-05-09T09:23:46.248Z,13.70
2024-05-09T09:26:19.048Z,13.87
2024-05-09T09:29:03.367Z,13.89
2024-05-09T09:31:39.577Z,13.88
2024-05-09T09:34:12.525Z,14.00
2024-05-09T09:36:50.900Z,13.91
2024-05-09T09:39:28.379Z,13.83
2024-05-09T09:42:05.396Z,13.82
2024-05-09T09:44:42.413Z,13.75
2024-05-09T09:47:21.332Z,13.89
2024-05-09T09:49:55.661Z,14.04
2024-05-09T09:52:31.426Z,14.01
2024-05-09T09:55:05.602Z,14.15
2024-05-09T09:57:42.921Z,14.09
2024-05-09T10:00:26.889Z,14.15
2024-05-09T10:03:06.066Z,14.17
2024-05-09T10:05:42.173Z,14.26
2024-05-09T10:08:22.140Z,14.29
2024-05-09T10:10:55.687Z,14.48
2024-05-09T10:13:36.431Z,14.38
2024-05-09T10:16:12.419Z,14.56
2024-05-09T10:18:48.080Z,14.84
2024-05-09T10:21:21.428Z,15.00
2024-05-09T10:24:00.686Z,15.00
2024-05-09T10:26:34.367Z,14.85
2024-05-09T10:29:16.222Z,14.91
2024-05-09T10:31:51.737Z,14.89
2024-05-09T10:34:27.243Z,14.90
2024-05-09T10:37:04.186Z,15.13
2024-05-09T10:39:41.363Z,15.21
2024-05-09T10:42:14.243Z,15.36
2024-05-09T10:44:50.059Z,15.35
2024-05-09T10:47:26.231Z,15.64
2024-05-09T10:50:01.907Z,15.89
2024-05-09T10:52:34.901Z,15.92
2024-05-09T10:55:10.347Z,15.92
2024-05-09T10:57:43.401Z,16.14
2024-05-09T11:00:27.399Z,16.28
2024-05-09T11:03:11.527Z,15.78
2024-05-09T11:05:47.492Z,16.02
2024-05-09T11:08:23.578Z,16.30
2024-05-09T11:10:56.744Z,15.97
2024-05-09T11:13:32.808Z,16.21
2024-05-09T11:16:15.833Z,16.37
2024-05-09T11:19:00.744Z,16.46
2024-05-09T11:21:34.014Z,16.37
2024-05-09T11:24:11.529Z,16.63
2024-05-09T11:26:44.597Z,16.42
2024-05-09T11:29:20.081Z,16.26
2024-05-09T11:31:52.856Z,16.44
2024-05-09T11:34:30.950Z,16.66
2024-05-09T11:37:04.273Z,16.92
2024-05-09T11:39:39.893Z,16.95
2024-05-09T11:42:12.670Z,16.49
2024-05-09T11:44:48.369Z,16.33
2024-05-09T11:47:22.771Z,16.37
2024-05-09T11:50:00.952Z,16.23
2024-05-09T11:52:33.960Z,16.41
2024-05-09T11:55:09.879Z,16.29
2024-05-09T11:57:42.902Z,16.29
2024-05-09T12:00:28.910Z,16.48
2024-05-09T12:03:07.198Z,16.45
2024-05-09T12:05:45.563Z,16.73
2024-05-09T12:08:18.660Z,16.61
2024-05-09T12:10:54.255Z,16.33
2024-05-09T12:13:27.160Z,16.15
2024-05-09T12:16:02.650Z,16.26
2024-05-09T12:18:35.672Z,16.28
2024-05-09T12:21:17.022Z,16.44
2024-05-09T12:23:49.758Z,15.78
2024-05-09T12:26:25.589Z,15.76
2024-05-09T12:28:58.326Z,15.92
2024-05-09T12:31:33.705Z,15.78
2024-05-09T12:34:06.598Z,15.94
2024-05-09T12:36:45.072Z,16.04
2024-05-09T12:39:17.824Z,16.16
2024-05-09T12:41:53.155Z,15.82
2024-05-09T12:44:25.895Z,15.51
2024-05-09T12:47:02.026Z,15.30
2024-05-09T12:49:35.106Z,15.36
2024-05-09T12:52:13.275Z,14.84
2024-05-09T12:54:46.042Z,15.05
2024-05-09T12:57:21.795Z,14.88
2024-05-09T12:59:57.270Z,14.77
2024-05-09T13:02:30.146Z,14.44
2024-05-09T13:05:05.750Z,14.47
2024-05-09T13:07:41.456Z,14.18
2024-05-09T13:10:25.514Z,14.02
2024-05-09T13:13:04.632Z,14.00
2024-05-09T13:15:40.408Z,14.08
2024-05-09T13:18:13.440Z,14.29
2024-05-09T13:20:48.971Z,14.38
2024-05-09T13:23:24.364Z,14.59
2024-05-09T13:25:59.733Z,14.77
2024-05-09T13:28:33.647Z,14.84
2024-05-09T13:31:09.161Z,14.92
2024-05-09T13:33:42.314Z,15.01
2024-05-09T13:36:17.869Z,15.11
2024-05-09T13:38:53.346Z,15.18
2024-05-09T13:41:28.696Z,15.11
2024-05-09T13:44:01.417Z,15.09
2024-05-09T13:46:37.216Z,14.95
2024-05-09T13:49:12.500Z,14.95
2024-05-09T13:51:48.318Z,14.71
2024-05-09T13:54:23.909Z,14.93
2024-05-09T13:57:01.125Z,14.90
2024-05-09T13:59:33.975Z,15.05
2024-05-09T14:02:09.476Z,14.81
2024-05-09T14:04:42.452Z,14.75
2024-05-09T14:07:17.970Z,14.63
2024-05-09T14:09:53.617Z,14.47
2024-05-09T14:12:28.988Z,14.48
2024-05-09T14:15:01.987Z,14.24
2024-05-09T14:17:37.765Z,14.26
2024-05-09T14:20:14.091Z,14.16
2024-05-09T14:22:51.804Z,13.98
2024-05-09T14:25:28.359Z,13.73
2024-05-09T14:28:04.178Z,13.56
2024-05-09T14:30:38.437Z,13.36
2024-05-09T14:33:16.362Z,13.21
2024-05-09T14:35:49.622Z,13.26
2024-05-09T14:38:25.193Z,13.26
2024-05-09T14:41:00.692Z,13.13
2024-05-09T14:43:36.256Z,13.06
2024-05-09T14:46:09.199Z,12.63
2024-05-09T14:48:45.114Z,12.59
2024-05-09T14:51:18.013Z,12.65
2024-05-09T14:53:53.407Z,12.46
2024-05-09T14:56:29.070Z,12.04
2024-05-09T14:59:04.667Z,11.89
2024-05-09T15:01:37.502Z,11.82
2024-05-09T15:04:12.993Z,11.77
2024-05-09T15:06:48.218Z,11.78
2024-05-09T15:09:23.627Z,11.73
2024-05-09T15:11:59.033Z,11.72
2024-05-09T15:14:34.417Z,11.63
2024-05-09T15:17:07.254Z,11.53
2024-05-09T15:19:42.823Z,11.39
2024-05-09T15:22:16.535Z,11.34
2024-05-09T15:24:53.894Z,11.38
2024-05-09T15:27:29.406Z,11.39
2024-05-09T15:30:08.510Z,11.25
2024-05-09T15:32:43.782Z,11.23
2024-05-09T15:35:19.182Z,11.15
2024-05-09T15:37:52.159Z,11.12
2024-05-09T15:40:36.155Z,11.07
2024-05-09T15:43:15.221Z,11.23
2024-05-09T15:45:50.967Z,11.36
2024-05-09T15:48:23.934Z,11.35
2024-05-09T15:50:59.463Z,11.37
2024-05-09T15:53:32.326Z,11.46
2024-05-09T15:56:10.910Z,11.48
2024-05-09T15:58:46.447Z,11.52
2024-05-09T16:01:21.831Z,11.39
2024-05-09T16:03:54.839Z,11.40
2024-05-09T16:06:30.573Z,11.39
2024-05-09T16:09:03.539Z,11.21
2024-05-09T16:11:39.026Z,11.20
2024-05-09T16:14:16.146Z,11.05
2024-05-09T16:16:53.022Z,11.09
2024-05-09T16:19:26.415Z,10.87
2024-05-09T16:22:02.530Z,10.78
2024-05-09T16:24:35.305Z,10.88
2024-05-09T16:27:10.763Z,10.85
2024-05-09T16:29:46.591Z,10.66
2024-05-09T16:32:22.106Z,10.72
2024-05-09T16:34:54.889Z,10.70
2024-05-09T16:37:30.369Z,10.64
2024-05-09T16:40:09.909Z,10.50
2024-05-09T16:42:48.031Z,10.62
2024-05-09T16:45:25.997Z,10.50
2024-05-09T16:48:00.172Z,10.51
2024-05-09T16:50:36.702Z,10.51
2024-05-09T16:53:09.711Z,10.49
2024-05-09T16:55:45.074Z,10.46
2024-05-09T16:58:18.146Z,10.40
2024-05-09T17:00:56.347Z,10.26
2024-05-09T17:03:29.259Z,10.34
2024-05-09T17:06:05.796Z,10.27
2024-05-09T17:08:40.401Z,10.25
2024-05-09T17:11:15.980Z,10.10
2024-05-09T17:13:51.442Z,10.14
2024-05-09T17:16:30.444Z,10.14
2024-05-09T17:19:03.437Z,10.21
2024-05-09T17:21:38.993Z,10.26
2024-05-09T17:24:11.781Z,10.28
2024-05-09T17:26:47.419Z,10.21
2024-05-09T17:29:21.677Z,10.13
2024-05-09T17:31:59.803Z,10.14
2024-05-09T17:34:32.733Z,10.03
2024-05-09T17:37:08.270Z,9.96
2024-05-09T17:39:41.221Z,9.92
2024-05-09T17:42:16.577Z,9.96
2024-05-09T17:44:49.330Z,9.85
2024-05-09T17:47:27.419Z,9.84
2024-05-09T17:50:00.314Z,9.65
2024-05-09T17:52:35.896Z,9.61
2024-05-09T17:55:08.629Z,9.54
2024-05-09T17:57:44.123Z,9.45
2024-05-09T18:00:24.749Z,9.47
2024-05-09T18:03:14.035Z,9.38
2024-05-09T18:05:50.076Z,9.31
2024-05-09T18:08:23.292Z,9.29
2024-05-09T18:10:58.765Z,9.34
2024-05-09T18:13:31.655Z,9.34
2024-05-09T18:16:07.541Z,9.32
2024-05-09T18:18:43.177Z,9.33
2024-05-09T18:21:18.661Z,9.29
2024-05-09T18:23:53.983Z,9.24
2024-05-09T18:26:30.245Z,9.22
2024-05-09T18:29:03.598Z,9.12
2024-05-09T18:31:39.179Z,9.20
2024-05-09T18:34:14.778Z,9.23
2024-05-09T18:36:50.306Z,9.25
2024-05-09T18:39:23.157Z,9.23
2024-05-09T18:42:00.703Z,9.29
2024-05-09T18:44:33.630Z,9.23
2024-05-09T18:47:10.443Z,9.19
2024-05-09T18:49:46.210Z,9.19
2024-05-09T18:52:21.681Z,9.22
2024-05-09T18:54:54.645Z,9.17
2024-05-09T18:57:30.272Z,9.16
2024-05-09T19:00:05.469Z,9.21
2024-05-09T19:02:41.367Z,9.30
2024-05-09T19:05:17.053Z,9.22
2024-05-09T19:07:52.528Z,9.25
2024-05-09T19:10:28.884Z,9.14
2024-05-09T19:13:12.200Z,9.11
2024-05-09T19:15:46.911Z,9.08
2024-05-09T19:18:22.457Z,8.99
2024-05-09T19:20:58.904Z,9.03
2024-05-09T19:23:38.251Z,8.97
2024-05-09T19:26:13.864Z,8.90
2024-05-09T19:28:49.220Z,8.87
2024-05-09T19:31:22.754Z,8.91
2024-05-09T19:33:58.334Z,8.91
2024-05-09T19:36:33.875Z,8.82
2024-05-09T19:39:09.309Z,8.77
2024-05-09T19:41:42.071Z,8.73
2024-05-09T19:44:17.601Z,8.77
2024-05-09T19:46:50.399Z,8.66
2024-05-09T19:49:26.041Z,8.69
2024-05-09T19:52:02.000Z,8.68
2024-05-09T19:54:37.423Z,8.83
2024-05-09T19:57:10.262Z,8.88
2024-05-09T19:59:46.001Z,8.85
2024-05-09T20:02:19.428Z,8.86
2024-05-09T20:04:55.108Z,8.88
2024-05-09T20:07:32.622Z,8.86
2024-05-09T20:10:16.595Z,8.84
2024-05-09T20:12:56.187Z,8.84
2024-05-09T20:15:31.837Z,8.92
2024-05-09T20:18:06.718Z,8.94
2024-05-09T20:20:44.673Z,8.98
2024-05-09T20:23:21.216Z,8.84
2024-05-09T20:25:56.590Z,8.80
2024-05-09T20:28:29.835Z,8.78
2024-05-09T20:31:06.326Z,8.70
2024-05-09T20:33:39.449Z,8.63
2024-05-09T20:36:14.938Z,8.73
2024-05-09T20:38:50.319Z,8.82
2024-05-09T20:41:25.674Z,8.79
2024-05-09T20:44:01.780Z,8.76
2024-05-09T20:46:37.151Z,8.63
2024-05-09T20:49:10.272Z,8.56
2024-05-09T20:51:45.737Z,8.53
2024-05-09T20:54:21.220Z,8.55
2024-05-09T20:56:56.584Z,8.49
2024-05-09T20:59:29.577Z,8.40
2024-05-09T21:02:05.033Z,8.38
2024-05-09T21:04:38.080Z,8.44
2024-05-09T21:07:13.624Z,8.37
2024-05-09T21:09:49.174Z,8.41
2024-05-09T21:12:24.629Z,8.42
2024-05-09T21:15:00.021Z,8.33
2024-05-09T21:17:33.395Z,8.33
2024-05-09T21:20:16.868Z,8.32
2024-05-09T21:22:52.870Z,8.27
2024-05-09T21:25:30.918Z,8.32
2024-05-09T21:28:04.568Z,8.33
2024-05-09T21:30:42.662Z,8.22
2024-05-09T21:33:16.454Z,8.21
2024-05-09T21:35:51.981Z,8.19
2024-05-09T21:38:24.759Z,8.18
2024-05-09T21:41:02.912Z,8.23
2024-05-09T21:43:35.732Z,8.17
2024-05-09T21:46:11.233Z,8.13
2024-05-09T21:48:44.312Z,8.15
2024-05-09T21:51:19.773Z,8.09
2024-05-09T21:53:52.531Z,8.10
2024-05-09T21:56:30.652Z,8.14
2024-05-09T21:59:03.539Z,8.08
2024-05-09T22:01:40.076Z,8.05
2024-05-09T22:04:13.121Z,8.05
2024-05-09T22:06:48.627Z,8.02
2024-05-09T22:09:21.592Z,8.05
2024-05-09T22:11:59.698Z,8.11
2024-05-09T22:14:32.927Z,8.13
2024-05-09T22:17:08.368Z,8.13
2024-05-09T22:19:45.271Z,8.14
2024-05-09T22:22:20.850Z,8.15
2024-05-09T22:24:55.455Z,8.17
2024-05-09T22:27:33.612Z,8.20
2024-05-09T22:30:11.757Z,8.23
2024-05-09T22:32:50.103Z,8.27
2024-05-09T22:35:22.962Z,8.27
2024-05-09T22:37:58.313Z,8.27
2024-05-09T22:40:41.687Z,8.27
2024-05-09T22:43:25.528Z,8.22
2024-05-09T22:45:58.521Z,8.19
2024-05-09T22:48:34.235Z,8.20
2024-05-09T22:51:07.109Z,8.18
2024-05-09T22:53:42.442Z,8.31
2024-05-09T22:56:15.414Z,8.28
2024-05-09T22:58:53.386Z,8.22
2024-05-09T23:01:27.029Z,8.29
2024-05-09T23:04:02.734Z,8.29
2024-05-09T23:06:35.675Z,8.25
2024-05-09T23:09:12.231Z,8.22
2024-05-09T23:11:45.936Z,8.19
2024-05-09T23:14:23.975Z,8.20
2024-05-09T23:16:56.750Z,8.26
2024-05-09T23:19:32.331Z,8.27
2024-05-09T23:22:05.221Z,8.27
2024-05-09T23:24:41.781Z,8.30
2024-05-09T23:27:14.882Z,8.25
2024-05-09T23:29:53.415Z,8.25
2024-05-09T23:32:26.190Z,8.22
2024-05-09T23:35:01.929Z,8.24
2024-05-09T23:37:34.840Z,8.22
2024-05-09T23:40:18.119Z,8.15
2024-05-09T23:42:51.527Z,8.18
2024-05-09T23:45:29.546Z,8.14
2024-05-09T23:48:02.824Z,8.11
2024-05-09T23:50:40.089Z,8.12
2024-05-09T23:53:14.430Z,8.11
2024-05-09T23:55:49.990Z,8.07
2024-05-09T23:58:22.832Z,8.03
